createdAt,value
2022-11-17T00:02:09.056Z,96071.31
2022-11-17T00:04:35.786Z,96073.31
2022-11-17T00:07:02.444Z,96074.84
2022-11-17T00:09:29.080Z,96079.66
2022-11-17T00:11:55.701Z,96088.50
2022-11-17T00:14:22.358Z,96094.63
2022-11-17T00:16:49.027Z,96115.59
2022-11-17T00:19:15.671Z,96117.66
2022-11-17T00:21:42.312Z,96115.81
2022-11-17T00:24:08.939Z,96116.19
2022-11-17T00:26:35.614Z,96114.72
2022-11-17T00:29:02.259Z,96111.06
2022-11-17T00:31:28.875Z,96096.09
2022-11-17T00:33:55.526Z,96096.22
2022-11-17T00:36:22.195Z,96086.31
2022-11-17T00:38:48.807Z,96078.34
2022-11-17T00:41:15.468Z,96075.34
2022-11-17T00:43:42.114Z,96079.38
2022-11-17T00:46:08.779Z,96078.56
2022-11-17T00:48:35.404Z,96073.66
2022-11-17T00:51:02.076Z,96073.16
2022-11-17T00:53:28.713Z,96072.63
2022-11-17T00:55:55.392Z,96067.34
2022-11-17T00:58:22.051Z,96061.00
2022-11-17T01:00:48.835Z,96062.09
2022-11-17T01:03:15.476Z,96054.69
2022-11-17T01:05:42.115Z,96058.25
2022-11-17T01:08:08.767Z,96044.75
2022-11-17T01:10:35.509Z,96047.00
2022-11-17T01:13:02.145Z,96050.41
2022-11-17T01:15:28.768Z,96046.75
2022-11-17T01:17:55.638Z,96040.75
2022-11-17T01:20:22.359Z,96041.66
2022-11-17T01:22:49.017Z,96032.31
2022-11-17T01:25:15.695Z,96034.81
2022-11-17T01:27:42.336Z,96025.88
2022-11-17T01:30:09.018Z,96027.72
2022-11-17T01:32:35.661Z,96024.19
2022-11-17T01:35:02.325Z,96017.44
2022-11-17T01:37:28.952Z,96015.63
2022-11-17T01:39:55.611Z,96014.38
2022-11-17T01:42:22.287Z,96014.06
2022-11-17T01:44:48.915Z,96004.59
2022-11-17T01:47:15.620Z,96012.94
2022-11-17T01:49:42.235Z,96007.69
2022-11-17T01:52:08.914Z,96001.47
2022-11-17T01:54:35.548Z,95991.84
2022-11-17T01:57:02.170Z,95997.94
2022-11-17T01:59:28.848Z,95990.31
2022-11-17T02:01:55.748Z,95991.41
2022-11-17T02:04:22.664Z,95998.06
2022-11-17T02:06:49.370Z,95995.16
2022-11-17T02:09:16.063Z,95998.78
2022-11-17T02:11:42.703Z,96001.41
2022-11-17T02:14:09.367Z,95993.13
2022-11-17T02:16:35.983Z,95985.16
2022-11-17T02:19:02.665Z,95981.06
2022-11-17T02:21:29.295Z,95985.28
2022-11-17T02:23:55.955Z,95983.41
2022-11-17T02:26:22.625Z,95976.75
2022-11-17T02:28:49.305Z,95969.72
2022-11-17T02:31:15.968Z,95983.72
2022-11-17T02:33:42.599Z,95980.09
2022-11-17T02:36:09.283Z,95987.91
2022-11-17T02:38:35.917Z,95993.38
2022-11-17T02:41:02.564Z,95985.78
2022-11-17T02:43:29.249Z,95987.69
2022-11-17T02:45:55.862Z,95989.16
2022-11-17T02:48:22.511Z,95979.50
2022-11-17T02:50:49.185Z,95983.38
2022-11-17T02:53:15.827Z,95982.94
2022-11-17T02:55:42.439Z,95982.88
2022-11-17T02:58:09.131Z,95987.03
2022-11-17T03:00:35.784Z,95988.94
2022-11-17T03:03:02.450Z,95982.56
2022-11-17T03:05:29.083Z,95990.78
2022-11-17T03:07:55.738Z,95982.06
2022-11-17T03:10:22.775Z,95986.28
2022-11-17T03:12:49.489Z,95982.72
2022-11-17T03:15:16.111Z,95981.94
2022-11-17T03:17:42.752Z,95973.59
2022-11-17T03:20:09.360Z,95968.19
2022-11-17T03:22:35.966Z,95956.59
2022-11-17T03:25:02.656Z,95958.31
2022-11-17T03:27:29.295Z,95951.63
2022-11-17T03:29:55.932Z,95955.94
2022-11-17T03:32:22.582Z,95952.53
2022-11-17T03:34:49.229Z,95949.00
2022-11-17T03:37:15.891Z,95953.09
2022-11-17T03:39:42.569Z,95959.25
2022-11-17T03:42:09.217Z,95961.88
2022-11-17T03:44:35.882Z,95966.59
2022-11-17T03:47:02.714Z,95973.25
2022-11-17T03:49:29.370Z,95970.47
2022-11-17T03:51:56.047Z,95972.94
2022-11-17T03:54:22.722Z,95970.03
2022-11-17T03:56:49.357Z,95967.75
2022-11-17T03:59:19.055Z,95973.69
2022-11-17T04:01:45.800Z,95968.44
2022-11-17T04:04:12.527Z,95970.75
2022-11-17T04:06:39.195Z,95968.41
2022-11-17T04:09:05.827Z,95971.66
2022-11-17T04:11:32.472Z,95974.47
2022-11-17T04:13:59.307Z,95976.66
2022-11-17T04:16:25.980Z,95977.91
2022-11-17T04:18:58.524Z,95975.97
2022-11-17T04:21:25.443Z,95976.50
2022-11-17T04:23:52.074Z,95979.09
2022-11-17T04:26:18.748Z,95985.50
2022-11-17T04:28:45.477Z,95982.25
2022-11-17T04:31:12.110Z,95979.66
2022-11-17T04:33:38.969Z,95982.44
2022-11-17T04:36:05.653Z,95980.47
2022-11-17T04:38:32.311Z,95974.47
2022-11-17T04:40:58.967Z,95977.72
2022-11-17T04:43:25.634Z,95972.44
2022-11-17T04:45:52.267Z,95971.22
2022-11-17T04:48:18.922Z,95974.81
2022-11-17T04:50:45.945Z,95972.44
2022-11-17T04:53:12.633Z,95968.97
2022-11-17T04:55:39.280Z,95961.03
2022-11-17T04:58:05.962Z,95956.03
2022-11-17T05:00:32.613Z,95953.81
2022-11-17T05:02:59.290Z,95963.28
2022-11-17T05:05:25.994Z,95959.59
2022-11-17T05:07:52.631Z,95948.66
2022-11-17T05:10:19.280Z,95956.63
2022-11-17T05:12:46.026Z,95968.38
2022-11-17T05:15:12.679Z,95968.59
2022-11-17T05:17:39.329Z,95960.81
2022-11-17T05:20:06.061Z,95967.13
2022-11-17T05:22:32.692Z,95963.66
2022-11-17T05:24:59.381Z,95958.03
2022-11-17T05:27:26.042Z,95976.06
2022-11-17T05:29:52.649Z,95973.53
2022-11-17T05:32:19.261Z,95973.34
2022-11-17T05:34:46.008Z,95981.06
2022-11-17T05:37:12.668Z,95976.06
2022-11-17T05:39:39.314Z,95982.44
2022-11-17T05:42:06.005Z,95968.09
2022-11-17T05:44:32.647Z,95973.50
2022-11-17T05:46:59.300Z,95972.81
2022-11-17T05:49:26.014Z,95969.03
2022-11-17T05:51:53.233Z,95965.97
2022-11-17T05:54:20.058Z,95967.19
2022-11-17T05:56:46.744Z,95962.91
2022-11-17T05:59:13.386Z,95954.34
2022-11-17T06:01:40.106Z,95969.28
2022-11-17T06:04:06.709Z,95966.00
2022-11-17T06:06:33.365Z,95965.09
2022-11-17T06:09:00.048Z,95975.53
2022-11-17T06:11:26.690Z,95982.53
2022-11-17T06:13:53.348Z,95971.88
2022-11-17T06:16:20.012Z,95967.28
2022-11-17T06:18:46.681Z,95956.44
2022-11-17T06:21:14.014Z,95962.22
2022-11-17T06:23:40.692Z,95968.38
2022-11-17T06:26:07.355Z,95968.00
2022-11-17T06:28:34.048Z,95962.06
2022-11-17T06:31:00.728Z,95958.91
2022-11-17T06:33:27.374Z,95959.00
2022-11-17T06:35:53.992Z,95959.66
2022-11-17T06:38:20.655Z,95955.84
2022-11-17T06:40:47.337Z,95951.38
2022-11-17T06:43:14.001Z,95943.97
2022-11-17T06:45:40.667Z,95938.38
2022-11-17T06:48:07.317Z,95950.66
2022-11-17T06:50:34.014Z,95940.41
2022-11-17T06:53:00.669Z,95942.06
2022-11-17T06:55:27.379Z,95954.13
2022-11-17T06:57:54.065Z,95962.34
2022-11-17T07:00:20.734Z,95965.56
2022-11-17T07:02:47.446Z,95955.41
2022-11-17T07:05:14.103Z,95969.03
2022-11-17T07:07:40.769Z,95964.78
2022-11-17T07:10:07.439Z,95966.75
2022-11-17T07:12:34.151Z,95968.69
2022-11-17T07:15:00.823Z,95962.34
2022-11-17T07:17:27.543Z,95963.59
2022-11-17T07:19:54.187Z,95962.94
2022-11-17T07:22:20.844Z,95963.50
2022-11-17T07:24:47.500Z,95968.22
2022-11-17T07:27:14.188Z,95963.41
2022-11-17T07:29:40.844Z,95967.47
2022-11-17T07:32:07.514Z,95969.78
2022-11-17T07:34:34.221Z,95971.31
2022-11-17T07:37:00.893Z,95966.16
2022-11-17T07:39:27.567Z,95962.16
2022-11-17T07:41:54.211Z,95955.78
2022-11-17T07:44:21.036Z,95963.41
2022-11-17T07:46:47.745Z,95957.50
2022-11-17T07:49:14.424Z,95959.47
2022-11-17T07:51:41.125Z,95952.53
2022-11-17T07:54:07.827Z,95954.81
2022-11-17T07:56:34.476Z,95945.69
2022-11-17T07:59:01.187Z,95948.47
2022-11-17T08:01:27.938Z,95963.63
2022-11-17T08:03:54.849Z,95962.06
2022-11-17T08:06:21.626Z,95949.13
2022-11-17T08:08:48.311Z,95952.22
2022-11-17T08:11:14.975Z,95952.59
2022-11-17T08:13:41.875Z,95968.41
2022-11-17T08:16:08.507Z,95976.53
2022-11-17T08:18:35.478Z,95967.00
2022-11-17T08:21:02.457Z,95972.16
2022-11-17T08:23:29.160Z,95974.59
2022-11-17T08:25:55.800Z,95973.91
2022-11-17T08:28:22.485Z,95953.63
2022-11-17T08:30:49.206Z,95941.38
2022-11-17T08:33:15.898Z,95938.38
2022-11-17T08:35:42.530Z,95936.44
2022-11-17T08:38:09.187Z,95931.06
2022-11-17T08:40:35.852Z,95933.78
2022-11-17T08:43:02.499Z,95927.88
2022-11-17T08:45:29.160Z,95936.06
2022-11-17T08:47:55.865Z,95932.16
2022-11-17T08:50:22.772Z,95936.66
2022-11-17T08:52:49.471Z,95929.59
2022-11-17T08:55:16.185Z,95933.88
2022-11-17T08:57:42.945Z,95928.03
2022-11-17T09:00:09.629Z,95932.22
2022-11-17T09:02:36.314Z,95931.41
2022-11-17T09:05:03.054Z,95922.53
2022-11-17T09:07:34.621Z,95921.34
2022-11-17T09:10:01.644Z,95928.94
2022-11-17T09:12:28.307Z,95921.09
2022-11-17T09:14:54.920Z,95927.03
2022-11-17T09:17:21.560Z,95935.06
2022-11-17T09:19:48.268Z,95939.75
2022-11-17T09:22:14.957Z,95946.09
2022-11-17T09:24:41.611Z,95939.03
2022-11-17T09:27:08.278Z,95938.03
2022-11-17T09:29:35.263Z,95935.78
2022-11-17T09:32:01.883Z,95937.13
2022-11-17T09:34:28.571Z,95938.78
2022-11-17T09:36:55.294Z,95941.66
2022-11-17T09:39:21.970Z,95947.97
2022-11-17T09:41:48.729Z,95947.25
2022-11-17T09:44:15.456Z,95948.00
2022-11-17T09:46:42.143Z,95946.38
2022-11-17T09:49:08.850Z,95941.09
2022-11-17T09:51:35.514Z,95939.56
2022-11-17T09:54:02.244Z,95943.13
2022-11-17T09:56:29.112Z,95946.44
2022-11-17T09:58:55.766Z,95950.28
2022-11-17T10:01:22.617Z,95949.91
2022-11-17T10:03:49.491Z,95946.16
2022-11-17T10:06:16.352Z,95941.06
2022-11-17T10:08:43.054Z,95934.28
2022-11-17T10:11:10.531Z,95930.44
2022-11-17T10:13:37.990Z,95923.72
2022-11-17T10:16:05.633Z,95933.00
2022-11-17T10:18:37.706Z,95940.53
2022-11-17T10:21:05.074Z,95929.25
2022-11-17T10:23:31.772Z,95923.66
2022-11-17T10:25:58.571Z,95913.63
2022-11-17T10:28:25.481Z,95907.34
2022-11-17T10:30:52.185Z,95894.91
2022-11-17T10:33:18.991Z,95900.75
2022-11-17T10:35:45.943Z,95907.44
2022-11-17T10:38:12.668Z,95896.03
2022-11-17T10:40:39.475Z,95899.97
2022-11-17T10:43:06.342Z,95894.19
2022-11-17T10:45:33.500Z,95888.94
2022-11-17T10:48:00.345Z,95890.16
2022-11-17T10:50:27.284Z,95887.84
2022-11-17T10:52:54.409Z,95881.84
2022-11-17T10:55:21.519Z,95880.84
2022-11-17T10:57:48.212Z,95891.34
2022-11-17T11:00:15.563Z,95893.25
2022-11-17T11:02:42.299Z,95892.25
2022-11-17T11:05:08.975Z,95899.16
2022-11-17T11:07:36.096Z,95910.53
2022-11-17T11:10:03.038Z,95907.16
2022-11-17T11:12:30.200Z,95903.50
2022-11-17T11:14:56.946Z,95896.34
2022-11-17T11:17:23.804Z,95887.16
2022-11-17T11:19:50.487Z,95882.94
2022-11-17T11:22:21.239Z,95875.53
2022-11-17T11:24:48.803Z,95879.06
2022-11-17T11:27:15.716Z,95884.34
2022-11-17T11:29:42.402Z,95882.44
2022-11-17T11:32:09.387Z,95885.13
2022-11-17T11:34:36.341Z,95881.53
2022-11-17T11:37:03.291Z,95891.91
2022-11-17T11:39:30.379Z,95897.34
2022-11-17T11:41:57.365Z,95893.66
2022-11-17T11:44:24.070Z,95898.66
2022-11-17T11:46:50.938Z,95891.63
2022-11-17T11:49:18.142Z,95888.00
2022-11-17T11:51:45.526Z,95877.66
2022-11-17T11:54:12.900Z,95877.25
2022-11-17T11:56:39.948Z,95879.59
2022-11-17T11:59:07.123Z,95883.44
2022-11-17T12:01:34.115Z,95876.19
2022-11-17T12:04:01.472Z,95871.50
2022-11-17T12:06:28.419Z,95878.31
2022-11-17T12:08:55.070Z,95859.97
2022-11-17T12:11:21.914Z,95867.78
2022-11-17T12:13:52.851Z,95872.03
2022-11-17T12:16:21.150Z,95869.97
2022-11-17T12:18:51.059Z,95865.56
2022-11-17T12:21:17.886Z,95866.66
2022-11-17T12:23:44.514Z,95870.19
2022-11-17T12:26:11.140Z,95859.50
2022-11-17T12:28:38.064Z,95862.03
2022-11-17T12:31:09.699Z,95859.09
2022-11-17T12:33:36.977Z,95862.81
2022-11-17T12:36:03.680Z,95863.56
2022-11-17T12:38:30.369Z,95858.09
2022-11-17T12:40:57.079Z,95859.16
2022-11-17T12:43:23.704Z,95860.03
2022-11-17T12:45:50.390Z,95862.91
2022-11-17T12:48:32.906Z,95857.06
2022-11-17T12:51:04.902Z,95859.59
2022-11-17T12:53:31.921Z,95865.47
2022-11-17T12:55:58.556Z,95864.94
2022-11-17T12:58:25.290Z,95860.69
2022-11-17T13:00:52.083Z,95871.06
2022-11-17T13:03:18.826Z,95874.75
2022-11-17T13:05:45.483Z,95873.28
2022-11-17T13:08:12.156Z,95881.53
2022-11-17T13:10:38.856Z,95886.88
2022-11-17T13:13:05.545Z,95885.00
2022-11-17T13:15:32.243Z,95880.22
2022-11-17T13:17:58.962Z,95899.69
2022-11-17T13:20:25.628Z,95899.88
2022-11-17T13:22:52.253Z,95899.31
2022-11-17T13:25:18.867Z,95900.66
2022-11-17T13:27:49.386Z,95905.03
2022-11-17T13:30:21.193Z,95903.50
2022-11-17T13:32:47.894Z,95911.03
2022-11-17T13:35:14.609Z,95904.00
2022-11-17T13:37:41.530Z,95900.28
2022-11-17T13:40:08.213Z,95904.88
2022-11-17T13:42:34.868Z,95904.41
2022-11-17T13:45:01.541Z,95900.63
2022-11-17T13:47:28.219Z,95903.09
2022-11-17T13:49:54.932Z,95910.81
2022-11-17T13:52:21.723Z,95915.91
2022-11-17T13:54:48.461Z,95915.94
2022-11-17T13:57:15.133Z,95922.81
2022-11-17T13:59:41.892Z,95930.13
2022-11-17T14:02:08.611Z,95920.81
2022-11-17T14:04:35.269Z,95911.47
2022-11-17T14:07:01.993Z,95924.06
2022-11-17T14:09:28.751Z,95930.25
2022-11-17T14:11:55.371Z,95924.47
2022-11-17T14:14:22.020Z,95929.56
2022-11-17T14:16:48.651Z,95932.63
2022-11-17T14:19:15.431Z,95941.59
2022-11-17T14:21:42.262Z,95947.31
2022-11-17T14:24:08.899Z,95946.38
2022-11-17T14:26:35.531Z,95950.28
2022-11-17T14:29:02.179Z,95949.97
2022-11-17T14:31:28.850Z,95950.94
2022-11-17T14:33:55.543Z,95954.47
2022-11-17T14:36:22.166Z,95958.03
2022-11-17T14:38:48.859Z,95963.34
2022-11-17T14:41:15.499Z,95968.34
2022-11-17T14:43:42.175Z,95976.00
2022-11-17T14:46:08.825Z,95977.00
2022-11-17T14:48:35.554Z,95981.19
2022-11-17T14:51:02.250Z,95980.41
2022-11-17T14:53:28.941Z,95979.31
2022-11-17T14:55:55.607Z,95985.53
2022-11-17T14:58:22.319Z,95978.84
2022-11-17T15:00:48.955Z,95971.84
2022-11-17T15:03:15.677Z,95961.47
2022-11-17T15:05:42.382Z,95963.25
2022-11-17T15:08:09.056Z,95962.09
2022-11-17T15:10:35.690Z,95963.81
2022-11-17T15:13:02.347Z,95967.31
2022-11-17T15:15:29.024Z,95974.78
2022-11-17T15:17:55.684Z,95977.13
2022-11-17T15:20:22.335Z,95966.06
2022-11-17T15:22:48.963Z,95975.78
2022-11-17T15:25:15.635Z,95973.06
2022-11-17T15:27:42.323Z,95985.66
2022-11-17T15:30:08.970Z,95982.31
2022-11-17T15:32:35.646Z,95985.16
2022-11-17T15:35:02.400Z,95987.19
2022-11-17T15:37:29.072Z,95982.94
2022-11-17T15:39:55.711Z,95984.47
2022-11-17T15:42:22.348Z,95987.41
2022-11-17T15:44:48.968Z,95994.78
2022-11-17T15:47:15.624Z,95997.81
2022-11-17T15:49:42.341Z,95988.69
2022-11-17T15:52:08.955Z,95991.22
2022-11-17T15:54:35.575Z,95995.72
2022-11-17T15:57:02.220Z,96001.22
2022-11-17T15:59:28.957Z,96000.09
2022-11-17T16:01:55.606Z,96001.25
2022-11-17T16:04:22.374Z,95993.94
2022-11-17T16:06:48.981Z,95994.31
2022-11-17T16:09:16.028Z,95984.94
2022-11-17T16:11:43.082Z,95977.84
2022-11-17T16:14:09.743Z,95972.94
2022-11-17T16:16:36.452Z,95978.75
2022-11-17T16:19:03.098Z,95978.75
2022-11-17T16:21:29.735Z,95975.47
2022-11-17T16:23:56.414Z,95976.63
2022-11-17T16:26:23.079Z,95984.31
2022-11-17T16:28:49.701Z,95988.88
2022-11-17T16:31:16.345Z,95986.00
2022-11-17T16:33:42.983Z,95984.75
2022-11-17T16:36:09.667Z,95988.22
2022-11-17T16:38:36.532Z,95991.31
2022-11-17T16:41:03.190Z,95982.94
2022-11-17T16:43:29.812Z,95984.66
2022-11-17T16:45:56.482Z,95989.94
2022-11-17T16:48:23.128Z,95988.78
2022-11-17T16:50:49.804Z,95999.09
2022-11-17T16:53:16.499Z,95996.25
2022-11-17T16:55:43.181Z,95997.94
2022-11-17T16:58:09.879Z,96005.53
2022-11-17T17:00:36.553Z,96007.44
2022-11-17T17:03:03.296Z,96007.66
2022-11-17T17:05:29.991Z,96006.63
2022-11-17T17:07:56.647Z,96001.81
2022-11-17T17:10:23.261Z,96011.16
2022-11-17T17:12:49.987Z,96015.59
2022-11-17T17:15:16.748Z,96011.09
2022-11-17T17:17:43.373Z,96011.34
2022-11-17T17:20:10.010Z,96019.94
2022-11-17T17:22:36.680Z,96015.56
2022-11-17T17:25:03.345Z,96023.31
2022-11-17T17:27:29.996Z,96022.19
2022-11-17T17:29:56.766Z,96024.22
2022-11-17T17:32:23.588Z,96026.97
2022-11-17T17:34:50.251Z,96028.19
2022-11-17T17:37:16.972Z,96036.78
2022-11-17T17:39:43.603Z,96035.75
2022-11-17T17:42:10.292Z,96030.00
2022-11-17T17:44:36.998Z,96033.06
2022-11-17T17:47:03.627Z,96039.63
2022-11-17T17:49:30.474Z,96036.50
2022-11-17T17:51:57.112Z,96045.28
2022-11-17T17:54:23.826Z,96043.03
2022-11-17T17:56:50.439Z,96052.53
2022-11-17T17:59:17.350Z,96050.50
2022-11-17T18:01:44.212Z,96048.59
2022-11-17T18:04:15.542Z,96052.63
2022-11-17T18:06:43.038Z,96048.59
2022-11-17T18:09:09.715Z,96051.03
2022-11-17T18:11:36.358Z,96055.44
2022-11-17T18:14:03.033Z,96053.50
2022-11-17T18:16:29.736Z,96058.06
2022-11-17T18:18:56.427Z,96056.03
2022-11-17T18:21:23.091Z,96058.06
2022-11-17T18:23:49.815Z,96061.28
2022-11-17T18:26:16.541Z,96068.88
2022-11-17T18:28:43.248Z,96072.88
2022-11-17T18:31:09.975Z,96062.81
2022-11-17T18:33:36.811Z,96064.56
2022-11-17T18:36:03.412Z,96064.66
2022-11-17T18:38:30.084Z,96069.13
2022-11-17T18:40:59.371Z,96062.50
2022-11-17T18:43:26.258Z,96062.88
2022-11-17T18:45:53.709Z,96060.16
2022-11-17T18:48:20.359Z,96059.94
2022-11-17T18:51:17.431Z,96059.63
2022-11-17T18:53:33.660Z,96059.81
2022-11-17T18:56:00.421Z,96061.25
2022-11-17T18:58:27.122Z,96062.66
2022-11-17T19:00:53.902Z,96063.88
2022-11-17T19:03:20.546Z,96055.72
2022-11-17T19:05:47.275Z,96056.97
2022-11-17T19:08:13.928Z,96052.97
2022-11-17T19:10:40.655Z,96048.00
2022-11-17T19:13:07.299Z,96050.44
2022-11-17T19:15:34.019Z,96048.59
2022-11-17T19:18:00.648Z,96048.50
2022-11-17T19:20:27.348Z,96039.97
2022-11-17T19:22:54.066Z,96028.34
2022-11-17T19:25:20.688Z,96035.28
2022-11-17T19:27:48.609Z,96033.69
2022-11-17T19:30:15.302Z,96033.22
2022-11-17T19:32:41.959Z,96036.78
2022-11-17T19:35:14.827Z,96034.75
2022-11-17T19:37:43.726Z,96031.25
2022-11-17T19:40:10.412Z,96029.69
2022-11-17T19:42:37.083Z,96032.66
2022-11-17T19:45:03.922Z,96029.13
2022-11-17T19:47:30.578Z,96036.97
2022-11-17T19:49:57.251Z,96035.25
2022-11-17T19:52:23.919Z,96039.88
2022-11-17T19:54:50.867Z,96027.66
2022-11-17T19:57:17.559Z,96034.59
2022-11-17T19:59:44.241Z,96033.53
2022-11-17T20:02:11.947Z,96036.22
2022-11-17T20:04:38.546Z,96032.47
2022-11-17T20:07:05.314Z,96042.38
2022-11-17T20:09:32.037Z,96049.09
2022-11-17T20:11:58.683Z,96045.06
2022-11-17T20:14:28.218Z,96044.94
2022-11-17T20:16:54.908Z,96043.69
2022-11-17T20:19:21.594Z,96038.22
2022-11-17T20:21:48.248Z,96022.44
2022-11-17T20:24:14.930Z,96026.03
2022-11-17T20:26:41.564Z,96034.09
2022-11-17T20:29:08.257Z,96039.59
2022-11-17T20:31:35.035Z,96037.88
2022-11-17T20:34:01.661Z,96034.22
2022-11-17T20:36:28.332Z,96027.78
2022-11-17T20:38:55.043Z,96035.00
2022-11-17T20:41:21.682Z,96040.00
2022-11-17T20:43:48.335Z,96027.06
2022-11-17T20:46:15.037Z,96023.75
2022-11-17T20:48:41.738Z,96026.97
2022-11-17T20:51:08.589Z,96029.41
2022-11-17T20:53:35.205Z,96025.00
2022-11-17T20:56:01.820Z,96026.47
2022-11-17T20:58:28.484Z,96024.03
2022-11-17T21:00:55.167Z,96017.44
2022-11-17T21:03:21.900Z,96018.34
2022-11-17T21:05:48.590Z,96023.78
2022-11-17T21:08:15.313Z,96017.91
2022-11-17T21:10:41.963Z,96019.31
2022-11-17T21:13:08.598Z,96019.94
2022-11-17T21:15:35.270Z,96012.84
2022-11-17T21:18:01.947Z,96009.44
2022-11-17T21:20:28.587Z,96013.59
2022-11-17T21:22:55.305Z,96010.38
2022-11-17T21:25:21.989Z,96016.25
2022-11-17T21:27:48.709Z,96010.56
2022-11-17T21:30:15.371Z,96008.66
2022-11-17T21:32:42.056Z,96005.66
2022-11-17T21:35:08.779Z,96012.63
2022-11-17T21:37:35.514Z,96009.09
2022-11-17T21:40:02.148Z,96015.75
2022-11-17T21:42:28.893Z,96013.25
2022-11-17T21:44:55.577Z,96017.19
2022-11-17T21:47:22.323Z,96009.88
2022-11-17T21:49:48.962Z,96012.69
2022-11-17T21:52:15.571Z,96014.19
2022-11-17T21:54:42.215Z,96012.91
2022-11-17T21:57:08.858Z,96016.56
2022-11-17T21:59:35.526Z,96004.38
2022-11-17T22:02:02.195Z,96006.59
2022-11-17T22:04:28.895Z,96001.63
2022-11-17T22:06:55.600Z,95986.56
2022-11-17T22:09:22.336Z,95986.47
2022-11-17T22:11:49.028Z,95987.31
2022-11-17T22:14:15.639Z,95998.03
2022-11-17T22:16:42.336Z,95982.56
2022-11-17T22:19:09.027Z,95981.56
2022-11-17T22:21:35.704Z,95979.63
2022-11-17T22:24:02.367Z,95971.25
2022-11-17T22:26:29.026Z,95974.50
2022-11-17T22:28:55.761Z,95964.06
2022-11-17T22:31:22.453Z,95962.66
2022-11-17T22:33:49.099Z,95953.94
2022-11-17T22:36:15.786Z,95946.94
2022-11-17T22:38:42.418Z,95950.66
2022-11-17T22:41:09.098Z,95932.50
2022-11-17T22:43:35.837Z,95929.59
2022-11-17T22:46:02.556Z,95923.13
2022-11-17T22:48:29.278Z,95913.84
2022-11-17T22:50:55.987Z,95910.38
2022-11-17T22:53:22.723Z,95904.47
2022-11-17T22:55:49.357Z,95899.97
2022-11-17T22:58:16.022Z,95901.78
2022-11-17T23:00:43.210Z,95906.81
2022-11-17T23:03:09.900Z,95909.94
2022-11-17T23:05:36.575Z,95907.25
2022-11-17T23:08:09.317Z,95903.94
2022-11-17T23:10:36.534Z,95891.78
2022-11-17T23:13:03.218Z,95890.28
2022-11-17T23:15:29.853Z,95885.25
2022-11-17T23:17:56.497Z,95878.25
2022-11-17T23:20:23.158Z,95872.75
2022-11-17T23:22:49.793Z,95878.50
2022-11-17T23:25:16.473Z,95868.53
2022-11-17T23:27:43.125Z,95864.63
2022-11-17T23:30:09.768Z,95854.81
2022-11-17T23:32:36.548Z,95851.22
2022-11-17T23:35:03.204Z,95858.94
2022-11-17T23:37:29.855Z,95858.88
2022-11-17T23:39:56.499Z,95860.84
2022-11-17T23:42:23.158Z,95869.78
2022-11-17T23:44:49.810Z,95873.13
2022-11-17T23:47:16.505Z,95878.19
2022-11-17T23:49:43.129Z,95877.69
2022-11-17T23:52:09.852Z,95879.34
2022-11-17T23:54:36.542Z,95883.03
2022-11-17T23:57:03.215Z,95881.34
2022-11-17T23:59:29.925Z,95890.19
